sensor_id;sensor_type;location;lat;lon;timestamp;P1;durP1;ratioP1;P2;durP2;ratioP2
26977;SDS011;56314;48.088;11.642;2023-10-19T00:01:55;23.55;;;15.90;;
26977;SDS011;56314;48.088;11.642;2023-10-19T00:04:26;22.63;;;14.48;;
26977;SDS011;56314;48.088;11.642;2023-10-19T00:06:56;24.33;;;14.48;;
26977;SDS011;56314;48.088;11.642;2023-10-19T00:09:22;22.00;;;14.30;;
26977;SDS011;56314;48.088;11.642;2023-10-19T00:11:47;26.38;;;14.30;;
26977;SDS011;56314;48.088;11.642;2023-10-19T00:14:16;23.65;;;13.82;;
26977;SDS011;56314;48.088;11.642;2023-10-19T00:16:45;21.80;;;14.10;;
26977;SDS011;56314;48.088;11.642;2023-10-19T00:19:25;22.27;;;14.65;;
26977;SDS011;56314;48.088;11.642;2023-10-19T00:21:52;27.25;;;15.10;;
26977;SDS011;56314;48.088;11.642;2023-10-19T00:24:27;21.70;;;14.45;;
26977;SDS011;56314;48.088;11.642;2023-10-19T00:26:52;23.35;;;14.13;;
26977;SDS011;56314;48.088;11.642;2023-10-19T00:29:20;20.35;;;13.75;;
26977;SDS011;56314;48.088;11.642;2023-10-19T00:32:05;22.30;;;13.43;;
26977;SDS011;56314;48.088;11.642;2023-10-19T00:34:31;23.92;;;14.77;;
26977;SDS011;56314;48.088;11.642;2023-10-19T00:36:58;21.48;;;14.48;;
26977;SDS011;56314;48.088;11.642;2023-10-19T00:39:32;20.75;;;13.50;;
26977;SDS011;56314;48.088;11.642;2023-10-19T00:42:07;23.67;;;13.30;;
26977;SDS011;56314;48.088;11.642;2023-10-19T00:44:33;21.05;;;13.63;;
26977;SDS011;56314;48.088;11.642;2023-10-19T00:47:08;22.88;;;14.65;;
26977;SDS011;56314;48.088;11.642;2023-10-19T00:49:43;22.33;;;13.57;;
26977;SDS011;56314;48.088;11.642;2023-10-19T00:52:12;22.35;;;14.25;;
26977;SDS011;56314;48.088;11.642;2023-10-19T00:54:45;22.98;;;13.95;;
26977;SDS011;56314;48.088;11.642;2023-10-19T00:57:13;27.15;;;13.82;;
26977;SDS011;56314;48.088;11.642;2023-10-19T00:59:45;21.65;;;13.88;;
26977;SDS011;56314;48.088;11.642;2023-10-19T01:02:14;22.80;;;13.15;;
26977;SDS011;56314;48.088;11.642;2023-10-19T01:04:42;24.20;;;14.60;;
26977;SDS011;56314;48.088;11.642;2023-10-19T01:07:10;27.95;;;15.32;;
26977;SDS011;56314;48.088;11.642;2023-10-19T01:09:47;21.88;;;13.60;;
26977;SDS011;56314;48.088;11.642;2023-10-19T01:12:13;22.98;;;14.57;;
26977;SDS011;56314;48.088;11.642;2023-10-19T01:17:51;23.60;;;13.65;;
26977;SDS011;56314;48.088;11.642;2023-10-19T01:23:12;24.17;;;14.13;;
26977;SDS011;56314;48.088;11.642;2023-10-19T01:25:54;20.05;;;13.10;;
26977;SDS011;56314;48.088;11.642;2023-10-19T01:28:31;23.75;;;14.40;;
26977;SDS011;56314;48.088;11.642;2023-10-19T01:31:08;19.90;;;13.35;;
26977;SDS011;56314;48.088;11.642;2023-10-19T01:33:47;21.92;;;13.85;;
26977;SDS011;56314;48.088;11.642;2023-10-19T01:36:13;21.85;;;13.02;;
26977;SDS011;56314;48.088;11.642;2023-10-19T01:38:42;24.77;;;14.55;;
26977;SDS011;56314;48.088;11.642;2023-10-19T01:41:08;22.00;;;13.73;;
26977;SDS011;56314;48.088;11.642;2023-10-19T01:43:44;21.38;;;12.93;;
26977;SDS011;56314;48.088;11.642;2023-10-19T01:46:12;17.60;;;11.95;;
26977;SDS011;56314;48.088;11.642;2023-10-19T01:48:41;20.60;;;13.05;;
26977;SDS011;56314;48.088;11.642;2023-10-19T01:51:09;25.15;;;14.20;;
26977;SDS011;56314;48.088;11.642;2023-10-19T01:53:36;20.85;;;13.02;;
26977;SDS011;56314;48.088;11.642;2023-10-19T01:56:12;23.30;;;14.47;;
26977;SDS011;56314;48.088;11.642;2023-10-19T01:58:40;23.33;;;14.27;;
26977;SDS011;56314;48.088;11.642;2023-10-19T02:01:06;22.05;;;13.65;;
26977;SDS011;56314;48.088;11.642;2023-10-19T02:03:41;21.90;;;13.95;;
26977;SDS011;56314;48.088;11.642;2023-10-19T02:06:09;21.92;;;13.40;;
26977;SDS011;56314;48.088;11.642;2023-10-19T02:08:41;20.25;;;13.00;;
26977;SDS011;56314;48.088;11.642;2023-10-19T02:11:10;19.60;;;12.98;;
26977;SDS011;56314;48.088;11.642;2023-10-19T02:13:44;19.00;;;9.75;;
26977;SDS011;56314;48.088;11.642;2023-10-19T02:16:14;22.48;;;13.77;;
26977;SDS011;56314;48.088;11.642;2023-10-19T02:18:47;20.40;;;12.98;;
26977;SDS011;56314;48.088;11.642;2023-10-19T02:21:13;21.83;;;13.98;;
26977;SDS011;56314;48.088;11.642;2023-10-19T02:23:39;22.60;;;13.60;;
26977;SDS011;56314;48.088;11.642;2023-10-19T02:26:06;23.00;;;14.43;;
26977;SDS011;56314;48.088;11.642;2023-10-19T02:28:37;19.92;;;13.77;;
26977;SDS011;56314;48.088;11.642;2023-10-19T02:31:04;21.83;;;13.45;;
26977;SDS011;56314;48.088;11.642;2023-10-19T02:33:39;20.25;;;13.15;;
26977;SDS011;56314;48.088;11.642;2023-10-19T02:36:04;18.55;;;12.43;;
26977;SDS011;56314;48.088;11.642;2023-10-19T02:38:37;21.50;;;14.75;;
26977;SDS011;56314;48.088;11.642;2023-10-19T02:41:03;22.23;;;12.77;;
26977;SDS011;56314;48.088;11.642;2023-10-19T02:43:29;22.58;;;12.98;;
26977;SDS011;56314;48.088;11.642;2023-10-19T02:45:57;19.92;;;12.98;;
26977;SDS011;56314;48.088;11.642;2023-10-19T02:48:24;27.05;;;14.25;;
26977;SDS011;56314;48.088;11.642;2023-10-19T02:50:49;22.48;;;12.55;;
26977;SDS011;56314;48.088;11.642;2023-10-19T02:53:15;22.15;;;12.88;;
26977;SDS011;56314;48.088;11.642;2023-10-19T02:55:43;18.83;;;12.73;;
26977;SDS011;56314;48.088;11.642;2023-10-19T02:58:09;20.02;;;12.40;;
26977;SDS011;56314;48.088;11.642;2023-10-19T03:00:36;16.75;;;11.73;;
26977;SDS011;56314;48.088;11.642;2023-10-19T03:03:05;21.70;;;12.90;;
26977;SDS011;56314;48.088;11.642;2023-10-19T03:05:31;20.25;;;12.45;;
26977;SDS011;56314;48.088;11.642;2023-10-19T03:07:59;21.02;;;12.57;;
26977;SDS011;56314;48.088;11.642;2023-10-19T03:10:24;21.58;;;13.48;;
26977;SDS011;56314;48.088;11.642;2023-10-19T03:13:00;19.90;;;12.70;;
26977;SDS011;56314;48.088;11.642;2023-10-19T03:15:27;19.95;;;12.25;;
26977;SDS011;56314;48.088;11.642;2023-10-19T03:17:55;18.83;;;12.25;;
26977;SDS011;56314;48.088;11.642;2023-10-19T03:20:21;22.17;;;12.93;;
26977;SDS011;56314;48.088;11.642;2023-10-19T03:22:49;20.52;;;13.38;;
26977;SDS011;56314;48.088;11.642;2023-10-19T03:25:15;20.05;;;12.38;;
26977;SDS011;56314;48.088;11.642;2023-10-19T03:30:33;21.08;;;12.40;;
26977;SDS011;56314;48.088;11.642;2023-10-19T03:33:03;19.05;;;12.10;;
26977;SDS011;56314;48.088;11.642;2023-10-19T03:35:29;22.20;;;12.30;;
26977;SDS011;56314;48.088;11.642;2023-10-19T03:37:55;19.60;;;12.20;;
26977;SDS011;56314;48.088;11.642;2023-10-19T03:40:23;20.52;;;12.98;;
26977;SDS011;56314;48.088;11.642;2023-10-19T03:45:23;21.55;;;13.05;;
26977;SDS011;56314;48.088;11.642;2023-10-19T03:47:50;17.35;;;11.85;;
26977;SDS011;56314;48.088;11.642;2023-10-19T03:50:18;18.63;;;12.70;;
26977;SDS011;56314;48.088;11.642;2023-10-19T03:52:46;17.05;;;11.68;;
26977;SDS011;56314;48.088;11.642;2023-10-19T03:55:12;19.95;;;12.40;;
26977;SDS011;56314;48.088;11.642;2023-10-19T03:57:41;20.75;;;11.75;;
26977;SDS011;56314;48.088;11.642;2023-10-19T04:00:11;18.55;;;12.02;;
26977;SDS011;56314;48.088;11.642;2023-10-19T04:02:40;20.38;;;11.98;;
26977;SDS011;56314;48.088;11.642;2023-10-19T04:05:07;16.77;;;11.25;;
26977;SDS011;56314;48.088;11.642;2023-10-19T04:07:35;15.30;;;11.48;;
26977;SDS011;56314;48.088;11.642;2023-10-19T04:10:00;18.35;;;11.43;;
26977;SDS011;56314;48.088;11.642;2023-10-19T04:12:32;18.80;;;11.43;;
26977;SDS011;56314;48.088;11.642;2023-10-19T04:15:00;16.60;;;11.25;;
26977;SDS011;56314;48.088;11.642;2023-10-19T04:17:45;15.63;;;10.60;;
26977;SDS011;56314;48.088;11.642;2023-10-19T04:20:12;19.35;;;11.10;;
26977;SDS011;56314;48.088;11.642;2023-10-19T04:22:42;17.95;;;11.13;;
26977;SDS011;56314;48.088;11.642;2023-10-19T04:25:11;18.77;;;11.45;;
26977;SDS011;56314;48.088;11.642;2023-10-19T04:27:38;13.45;;;9.88;;
26977;SDS011;56314;48.088;11.642;2023-10-19T04:30:07;17.17;;;11.40;;
26977;SDS011;56314;48.088;11.642;2023-10-19T04:35:18;14.25;;;10.55;;
26977;SDS011;56314;48.088;11.642;2023-10-19T04:40:16;13.95;;;9.35;;
26977;SDS011;56314;48.088;11.642;2023-10-19T04:42:42;14.40;;;10.07;;
26977;SDS011;56314;48.088;11.642;2023-10-19T04:45:07;16.50;;;9.88;;
26977;SDS011;56314;48.088;11.642;2023-10-19T04:47:33;17.90;;;10.07;;
26977;SDS011;56314;48.088;11.642;2023-10-19T04:50:01;14.85;;;10.00;;
26977;SDS011;56314;48.088;11.642;2023-10-19T04:52:27;14.05;;;9.57;;
26977;SDS011;56314;48.088;11.642;2023-10-19T04:54:53;14.35;;;9.73;;
26977;SDS011;56314;48.088;11.642;2023-10-19T04:57:19;15.60;;;9.93;;
26977;SDS011;56314;48.088;11.642;2023-10-19T04:59:46;17.30;;;10.10;;
26977;SDS011;56314;48.088;11.642;2023-10-19T05:02:11;16.73;;;10.20;;
26977;SDS011;56314;48.088;11.642;2023-10-19T05:04:37;17.13;;;10.45;;
26977;SDS011;56314;48.088;11.642;2023-10-19T05:07:02;16.98;;;10.45;;
26977;SDS011;56314;48.088;11.642;2023-10-19T05:09:29;14.73;;;9.93;;
26977;SDS011;56314;48.088;11.642;2023-10-19T05:11:55;11.82;;;8.80;;
26977;SDS011;56314;48.088;11.642;2023-10-19T05:14:22;15.48;;;10.35;;
26977;SDS011;56314;48.088;11.642;2023-10-19T05:16:47;13.18;;;9.80;;
26977;SDS011;56314;48.088;11.642;2023-10-19T05:19:13;18.25;;;10.30;;
26977;SDS011;56314;48.088;11.642;2023-10-19T05:21:39;16.80;;;9.55;;
26977;SDS011;56314;48.088;11.642;2023-10-19T05:24:04;16.10;;;9.35;;
26977;SDS011;56314;48.088;11.642;2023-10-19T05:26:30;12.40;;;8.88;;
26977;SDS011;56314;48.088;11.642;2023-10-19T05:28:58;16.70;;;9.95;;
26977;SDS011;56314;48.088;11.642;2023-10-19T05:31:24;13.95;;;9.50;;
26977;SDS011;56314;48.088;11.642;2023-10-19T05:33:49;14.10;;;9.73;;
26977;SDS011;56314;48.088;11.642;2023-10-19T05:36:15;18.90;;;9.25;;
26977;SDS011;56314;48.088;11.642;2023-10-19T05:38:42;14.27;;;10.27;;
26977;SDS011;56314;48.088;11.642;2023-10-19T05:41:08;13.65;;;9.70;;
26977;SDS011;56314;48.088;11.642;2023-10-19T05:43:35;16.75;;;10.23;;
26977;SDS011;56314;48.088;11.642;2023-10-19T05:46:00;12.43;;;9.38;;
26977;SDS011;56314;48.088;11.642;2023-10-19T05:48:26;13.50;;;8.35;;
26977;SDS011;56314;48.088;11.642;2023-10-19T05:50:51;11.90;;;9.13;;
26977;SDS011;56314;48.088;11.642;2023-10-19T05:53:16;12.98;;;8.50;;
26977;SDS011;56314;48.088;11.642;2023-10-19T05:55:43;14.32;;;9.00;;
26977;SDS011;56314;48.088;11.642;2023-10-19T05:58:12;14.95;;;9.23;;
26977;SDS011;56314;48.088;11.642;2023-10-19T06:00:37;12.60;;;8.18;;
26977;SDS011;56314;48.088;11.642;2023-10-19T06:03:03;13.32;;;8.32;;
26977;SDS011;56314;48.088;11.642;2023-10-19T06:05:30;11.20;;;7.57;;
26977;SDS011;56314;48.088;11.642;2023-10-19T06:07:56;12.68;;;8.80;;
26977;SDS011;56314;48.088;11.642;2023-10-19T06:10:21;14.25;;;8.60;;
26977;SDS011;56314;48.088;11.642;2023-10-19T06:12:50;11.75;;;8.38;;
26977;SDS011;56314;48.088;11.642;2023-10-19T06:15:17;12.23;;;7.97;;
26977;SDS011;56314;48.088;11.642;2023-10-19T06:17:45;12.88;;;9.43;;
26977;SDS011;56314;48.088;11.642;2023-10-19T06:20:13;13.40;;;8.23;;
26977;SDS011;56314;48.088;11.642;2023-10-19T06:22:47;12.35;;;8.55;;
26977;SDS011;56314;48.088;11.642;2023-10-19T06:25:16;12.30;;;9.07;;
26977;SDS011;56314;48.088;11.642;2023-10-19T06:27:46;13.45;;;8.45;;
26977;SDS011;56314;48.088;11.642;2023-10-19T06:30:12;15.60;;;8.30;;
26977;SDS011;56314;48.088;11.642;2023-10-19T06:32:44;14.60;;;8.18;;
26977;SDS011;56314;48.088;11.642;2023-10-19T06:35:12;16.15;;;8.30;;
26977;SDS011;56314;48.088;11.642;2023-10-19T06:37:38;12.02;;;8.32;;
26977;SDS011;56314;48.088;11.642;2023-10-19T06:40:04;11.35;;;7.30;;
26977;SDS011;56314;48.088;11.642;2023-10-19T06:42:31;12.27;;;8.52;;
26977;SDS011;56314;48.088;11.642;2023-10-19T06:44:56;11.20;;;7.93;;
26977;SDS011;56314;48.088;11.642;2023-10-19T06:47:22;11.77;;;7.50;;
26977;SDS011;56314;48.088;11.642;2023-10-19T06:49:48;15.88;;;8.18;;
26977;SDS011;56314;48.088;11.642;2023-10-19T06:52:13;10.60;;;6.95;;
26977;SDS011;56314;48.088;11.642;2023-10-19T06:54:39;12.73;;;6.85;;
26977;SDS011;56314;48.088;11.642;2023-10-19T06:57:05;8.68;;;5.63;;
26977;SDS011;56314;48.088;11.642;2023-10-19T06:59:33;14.73;;;6.45;;
26977;SDS011;56314;48.088;11.642;2023-10-19T07:01:58;12.18;;;5.93;;
26977;SDS011;56314;48.088;11.642;2023-10-19T07:04:26;9.55;;;6.32;;
26977;SDS011;56314;48.088;11.642;2023-10-19T07:06:51;9.98;;;6.32;;
26977;SDS011;56314;48.088;11.642;2023-10-19T07:09:18;9.43;;;5.85;;
26977;SDS011;56314;48.088;11.642;2023-10-19T07:11:44;9.38;;;6.35;;
26977;SDS011;56314;48.088;11.642;2023-10-19T07:14:10;9.32;;;5.32;;
26977;SDS011;56314;48.088;11.642;2023-10-19T07:16:38;6.93;;;5.47;;
26977;SDS011;56314;48.088;11.642;2023-10-19T07:19:04;9.23;;;5.68;;
26977;SDS011;56314;48.088;11.642;2023-10-19T07:21:30;7.07;;;5.40;;
26977;SDS011;56314;48.088;11.642;2023-10-19T07:24:00;10.23;;;5.05;;
26977;SDS011;56314;48.088;11.642;2023-10-19T07:26:30;9.13;;;4.63;;
26977;SDS011;56314;48.088;11.642;2023-10-19T07:28:56;9.65;;;4.50;;
26977;SDS011;56314;48.088;11.642;2023-10-19T07:31:21;7.63;;;3.97;;
26977;SDS011;56314;48.088;11.642;2023-10-19T07:33:47;7.43;;;4.20;;
26977;SDS011;56314;48.088;11.642;2023-10-19T07:36:15;6.72;;;3.80;;
26977;SDS011;56314;48.088;11.642;2023-10-19T07:38:40;6.28;;;4.00;;
26977;SDS011;56314;48.088;11.642;2023-10-19T07:41:07;5.57;;;4.20;;
26977;SDS011;56314;48.088;11.642;2023-10-19T07:43:34;6.68;;;4.30;;
26977;SDS011;56314;48.088;11.642;2023-10-19T07:46:00;10.50;;;4.75;;
26977;SDS011;56314;48.088;11.642;2023-10-19T07:48:26;7.47;;;4.28;;
26977;SDS011;56314;48.088;11.642;2023-10-19T07:50:51;5.38;;;3.25;;
26977;SDS011;56314;48.088;11.642;2023-10-19T07:53:18;7.88;;;3.22;;
26977;SDS011;56314;48.088;11.642;2023-10-19T07:55:44;7.95;;;3.65;;
26977;SDS011;56314;48.088;11.642;2023-10-19T07:58:09;4.55;;;3.40;;
26977;SDS011;56314;48.088;11.642;2023-10-19T08:00:35;4.78;;;3.28;;
26977;SDS011;56314;48.088;11.642;2023-10-19T08:03:04;5.78;;;3.00;;
26977;SDS011;56314;48.088;11.642;2023-10-19T08:05:30;7.70;;;2.85;;
26977;SDS011;56314;48.088;11.642;2023-10-19T08:07:56;9.30;;;3.03;;
26977;SDS011;56314;48.088;11.642;2023-10-19T08:10:23;6.82;;;4.13;;
26977;SDS011;56314;48.088;11.642;2023-10-19T08:12:50;4.20;;;2.42;;
26977;SDS011;56314;48.088;11.642;2023-10-19T08:15:17;5.70;;;2.85;;
26977;SDS011;56314;48.088;11.642;2023-10-19T08:17:46;5.43;;;3.10;;
26977;SDS011;56314;48.088;11.642;2023-10-19T08:20:13;6.20;;;3.17;;
26977;SDS011;56314;48.088;11.642;2023-10-19T08:22:48;6.63;;;3.13;;
26977;SDS011;56314;48.088;11.642;2023-10-19T08:25:14;5.18;;;2.85;;
26977;SDS011;56314;48.088;11.642;2023-10-19T08:27:40;4.88;;;3.00;;
26977;SDS011;56314;48.088;11.642;2023-10-19T08:30:10;5.55;;;2.60;;
26977;SDS011;56314;48.088;11.642;2023-10-19T08:32:37;4.47;;;2.88;;
26977;SDS011;56314;48.088;11.642;2023-10-19T08:35:04;5.97;;;2.65;;
26977;SDS011;56314;48.088;11.642;2023-10-19T08:37:30;4.15;;;3.20;;
26977;SDS011;56314;48.088;11.642;2023-10-19T08:39:56;5.25;;;3.33;;
26977;SDS011;56314;48.088;11.642;2023-10-19T08:42:23;5.10;;;2.78;;
26977;SDS011;56314;48.088;11.642;2023-10-19T08:44:48;6.78;;;2.95;;
26977;SDS011;56314;48.088;11.642;2023-10-19T08:47:14;5.07;;;3.00;;
26977;SDS011;56314;48.088;11.642;2023-10-19T08:49:40;8.95;;;3.13;;
26977;SDS011;56314;48.088;11.642;2023-10-19T08:52:06;5.40;;;2.58;;
26977;SDS011;56314;48.088;11.642;2023-10-19T08:54:33;4.60;;;2.58;;
26977;SDS011;56314;48.088;11.642;2023-10-19T08:56:59;6.60;;;3.47;;
26977;SDS011;56314;48.088;11.642;2023-10-19T08:59:25;6.05;;;2.58;;
26977;SDS011;56314;48.088;11.642;2023-10-19T09:01:59;3.92;;;2.78;;
26977;SDS011;56314;48.088;11.642;2023-10-19T09:04:25;3.80;;;2.70;;
26977;SDS011;56314;48.088;11.642;2023-10-19T09:06:51;5.57;;;2.92;;
26977;SDS011;56314;48.088;11.642;2023-10-19T09:09:20;7.50;;;3.42;;
26977;SDS011;56314;48.088;11.642;2023-10-19T09:11:46;5.50;;;3.13;;
26977;SDS011;56314;48.088;11.642;2023-10-19T09:14:13;5.93;;;3.42;;
26977;SDS011;56314;48.088;11.642;2023-10-19T09:16:54;8.15;;;3.58;;
26977;SDS011;56314;48.088;11.642;2023-10-19T09:19:21;5.85;;;3.30;;
26977;SDS011;56314;48.088;11.642;2023-10-19T09:22:01;5.93;;;3.10;;
26977;SDS011;56314;48.088;11.642;2023-10-19T09:24:32;5.50;;;3.08;;
26977;SDS011;56314;48.088;11.642;2023-10-19T09:26:58;5.80;;;2.85;;
26977;SDS011;56314;48.088;11.642;2023-10-19T09:29:23;5.65;;;3.05;;
26977;SDS011;56314;48.088;11.642;2023-10-19T09:31:50;5.90;;;3.08;;
26977;SDS011;56314;48.088;11.642;2023-10-19T09:34:17;7.68;;;3.35;;
26977;SDS011;56314;48.088;11.642;2023-10-19T09:36:43;8.80;;;3.40;;
26977;SDS011;56314;48.088;11.642;2023-10-19T09:39:09;11.55;;;3.55;;
26977;SDS011;56314;48.088;11.642;2023-10-19T09:41:37;9.93;;;3.42;;
26977;SDS011;56314;48.088;11.642;2023-10-19T09:44:04;9.02;;;3.35;;
26977;SDS011;56314;48.088;11.642;2023-10-19T09:46:35;6.30;;;3.55;;
26977;SDS011;56314;48.088;11.642;2023-10-19T09:49:04;6.38;;;3.60;;
26977;SDS011;56314;48.088;11.642;2023-10-19T09:51:31;5.78;;;3.00;;
26977;SDS011;56314;48.088;11.642;2023-10-19T09:54:00;5.10;;;3.80;;
26977;SDS011;56314;48.088;11.642;2023-10-19T09:56:38;5.57;;;3.78;;
26977;SDS011;56314;48.088;11.642;2023-10-19T09:59:22;6.22;;;3.65;;
26977;SDS011;56314;48.088;11.642;2023-10-19T10:02:15;7.25;;;3.70;;
26977;SDS011;56314;48.088;11.642;2023-10-19T10:04:43;5.60;;;3.60;;
26977;SDS011;56314;48.088;11.642;2023-10-19T10:07:10;9.10;;;4.55;;
26977;SDS011;56314;48.088;11.642;2023-10-19T10:09:40;6.38;;;4.30;;
26977;SDS011;56314;48.088;11.642;2023-10-19T10:12:19;6.32;;;3.75;;
26977;SDS011;56314;48.088;11.642;2023-10-19T10:14:59;7.47;;;3.85;;
26977;SDS011;56314;48.088;11.642;2023-10-19T10:17:27;10.20;;;5.30;;
26977;SDS011;56314;48.088;11.642;2023-10-19T10:19:54;14.02;;;5.80;;
26977;SDS011;56314;48.088;11.642;2023-10-19T10:22:22;13.57;;;6.22;;
26977;SDS011;56314;48.088;11.642;2023-10-19T10:24:48;10.13;;;4.95;;
26977;SDS011;56314;48.088;11.642;2023-10-19T10:27:19;9.90;;;5.18;;
26977;SDS011;56314;48.088;11.642;2023-10-19T10:38:06;9.23;;;5.28;;
26977;SDS011;56314;48.088;11.642;2023-10-19T10:40:43;13.88;;;5.88;;
26977;SDS011;56314;48.088;11.642;2023-10-19T10:43:12;12.75;;;5.53;;
26977;SDS011;56314;48.088;11.642;2023-10-19T10:45:38;11.70;;;6.25;;
26977;SDS011;56314;48.088;11.642;2023-10-19T10:48:04;12.02;;;5.50;;
26977;SDS011;56314;48.088;11.642;2023-10-19T10:50:37;6.20;;;4.60;;
26977;SDS011;56314;48.088;11.642;2023-10-19T10:53:04;9.07;;;4.78;;
26977;SDS011;56314;48.088;11.642;2023-10-19T10:55:29;7.05;;;4.43;;
26977;SDS011;56314;48.088;11.642;2023-10-19T10:57:55;6.90;;;4.22;;
26977;SDS011;56314;48.088;11.642;2023-10-19T11:00:21;6.05;;;4.18;;
26977;SDS011;56314;48.088;11.642;2023-10-19T11:03:01;7.40;;;4.28;;
26977;SDS011;56314;48.088;11.642;2023-10-19T11:05:32;6.80;;;4.57;;
26977;SDS011;56314;48.088;11.642;2023-10-19T11:10:45;8.02;;;4.22;;
26977;SDS011;56314;48.088;11.642;2023-10-19T11:13:12;10.20;;;3.72;;
26977;SDS011;56314;48.088;11.642;2023-10-19T11:15:48;9.90;;;3.95;;
26977;SDS011;56314;48.088;11.642;2023-10-19T11:21:15;5.60;;;2.80;;
26977;SDS011;56314;48.088;11.642;2023-10-19T11:23:47;5.18;;;2.95;;
26977;SDS011;56314;48.088;11.642;2023-10-19T11:26:15;4.95;;;3.38;;
26977;SDS011;56314;48.088;11.642;2023-10-19T11:28:42;5.53;;;2.60;;
26977;SDS011;56314;48.088;11.642;2023-10-19T11:31:12;7.97;;;3.03;;
26977;SDS011;56314;48.088;11.642;2023-10-19T11:33:40;6.15;;;2.55;;
26977;SDS011;56314;48.088;11.642;2023-10-19T11:36:09;6.93;;;3.28;;
26977;SDS011;56314;48.088;11.642;2023-10-19T11:38:37;5.10;;;2.70;;
26977;SDS011;56314;48.088;11.642;2023-10-19T11:41:12;7.43;;;4.03;;
26977;SDS011;56314;48.088;11.642;2023-10-19T11:43:41;3.72;;;2.42;;
26977;SDS011;56314;48.088;11.642;2023-10-19T11:46:09;3.47;;;2.15;;
26977;SDS011;56314;48.088;11.642;2023-10-19T11:48:36;5.32;;;2.60;;
26977;SDS011;56314;48.088;11.642;2023-10-19T11:51:02;3.70;;;2.45;;
26977;SDS011;56314;48.088;11.642;2023-10-19T11:53:31;4.60;;;2.50;;
26977;SDS011;56314;48.088;11.642;2023-10-19T11:55:59;3.28;;;2.30;;
26977;SDS011;56314;48.088;11.642;2023-10-19T11:58:42;4.90;;;2.83;;
26977;SDS011;56314;48.088;11.642;2023-10-19T12:01:10;3.58;;;2.15;;
26977;SDS011;56314;48.088;11.642;2023-10-19T12:03:42;5.40;;;2.50;;
26977;SDS011;56314;48.088;11.642;2023-10-19T12:06:10;2.90;;;2.10;;
26977;SDS011;56314;48.088;11.642;2023-10-19T12:08:37;2.88;;;2.10;;
26977;SDS011;56314;48.088;11.642;2023-10-19T12:11:03;3.45;;;2.25;;
26977;SDS011;56314;48.088;11.642;2023-10-19T12:13:32;4.25;;;2.20;;
26977;SDS011;56314;48.088;11.642;2023-10-19T12:15:58;4.07;;;3.00;;
26977;SDS011;56314;48.088;11.642;2023-10-19T12:18:24;4.68;;;2.25;;
26977;SDS011;56314;48.088;11.642;2023-10-19T12:20:51;7.13;;;2.38;;
26977;SDS011;56314;48.088;11.642;2023-10-19T12:23:21;4.20;;;2.30;;
26977;SDS011;56314;48.088;11.642;2023-10-19T12:25:48;3.65;;;2.25;;
26977;SDS011;56314;48.088;11.642;2023-10-19T12:28:14;4.93;;;2.47;;
26977;SDS011;56314;48.088;11.642;2023-10-19T12:30:40;3.70;;;2.28;;
26977;SDS011;56314;48.088;11.642;2023-10-19T12:33:06;3.58;;;2.47;;
26977;SDS011;56314;48.088;11.642;2023-10-19T12:35:36;4.10;;;2.20;;
26977;SDS011;56314;48.088;11.642;2023-10-19T12:38:16;4.13;;;2.40;;
26977;SDS011;56314;48.088;11.642;2023-10-19T12:40:46;4.32;;;2.38;;
26977;SDS011;56314;48.088;11.642;2023-10-19T12:43:13;3.38;;;2.08;;
26977;SDS011;56314;48.088;11.642;2023-10-19T12:45:40;2.75;;;2.17;;
26977;SDS011;56314;48.088;11.642;2023-10-19T12:48:07;4.43;;;1.80;;
26977;SDS011;56314;48.088;11.642;2023-10-19T12:50:36;4.05;;;2.25;;
26977;SDS011;56314;48.088;11.642;2023-10-19T12:53:02;3.30;;;1.95;;
26977;SDS011;56314;48.088;11.642;2023-10-19T12:55:28;3.38;;;1.63;;
26977;SDS011;56314;48.088;11.642;2023-10-19T12:57:56;2.17;;;1.45;;
26977;SDS011;56314;48.088;11.642;2023-10-19T13:00:22;2.85;;;1.77;;
26977;SDS011;56314;48.088;11.642;2023-10-19T13:03:07;2.50;;;1.52;;
26977;SDS011;56314;48.088;11.642;2023-10-19T13:05:36;2.95;;;1.40;;
26977;SDS011;56314;48.088;11.642;2023-10-19T13:08:21;3.65;;;1.55;;
26977;SDS011;56314;48.088;11.642;2023-10-19T13:10:47;1.75;;;1.23;;
26977;SDS011;56314;48.088;11.642;2023-10-19T13:13:14;3.85;;;1.65;;
26977;SDS011;56314;48.088;11.642;2023-10-19T13:15:44;2.22;;;1.63;;
26977;SDS011;56314;48.088;11.642;2023-10-19T13:18:11;3.65;;;2.38;;
26977;SDS011;56314;48.088;11.642;2023-10-19T13:20:52;3.67;;;2.00;;
26977;SDS011;56314;48.088;11.642;2023-10-19T13:23:19;2.00;;;1.50;;
26977;SDS011;56314;48.088;11.642;2023-10-19T13:25:48;3.40;;;1.50;;
26977;SDS011;56314;48.088;11.642;2023-10-19T13:28:33;2.63;;;1.83;;
26977;SDS011;56314;48.088;11.642;2023-10-19T13:31:00;4.28;;;1.70;;
26977;SDS011;56314;48.088;11.642;2023-10-19T13:33:25;2.47;;;1.55;;
26977;SDS011;56314;48.088;11.642;2023-10-19T13:35:51;3.28;;;1.38;;
26977;SDS011;56314;48.088;11.642;2023-10-19T13:38:17;4.65;;;1.42;;
26977;SDS011;56314;48.088;11.642;2023-10-19T13:40:44;2.42;;;1.50;;
26977;SDS011;56314;48.088;11.642;2023-10-19T13:43:11;3.95;;;2.25;;
26977;SDS011;56314;48.088;11.642;2023-10-19T13:45:41;2.38;;;1.80;;
26977;SDS011;56314;48.088;11.642;2023-10-19T13:48:10;2.85;;;1.67;;
26977;SDS011;56314;48.088;11.642;2023-10-19T13:50:40;2.42;;;1.58;;
26977;SDS011;56314;48.088;11.642;2023-10-19T13:53:08;3.38;;;2.00;;
26977;SDS011;56314;48.088;11.642;2023-10-19T13:55:35;1.80;;;1.48;;
26977;SDS011;56314;48.088;11.642;2023-10-19T13:58:01;2.40;;;1.67;;
26977;SDS011;56314;48.088;11.642;2023-10-19T14:00:27;5.72;;;2.00;;
26977;SDS011;56314;48.088;11.642;2023-10-19T14:03:00;2.28;;;1.50;;
26977;SDS011;56314;48.088;11.642;2023-10-19T14:05:30;4.43;;;1.60;;
26977;SDS011;56314;48.088;11.642;2023-10-19T14:08:01;3.53;;;1.70;;
26977;SDS011;56314;48.088;11.642;2023-10-19T14:10:28;4.15;;;2.15;;
26977;SDS011;56314;48.088;11.642;2023-10-19T14:12:54;3.65;;;2.63;;
26977;SDS011;56314;48.088;11.642;2023-10-19T14:15:19;4.55;;;2.42;;
26977;SDS011;56314;48.088;11.642;2023-10-19T14:17:46;3.70;;;2.60;;
26977;SDS011;56314;48.088;11.642;2023-10-19T14:20:13;3.20;;;2.00;;
26977;SDS011;56314;48.088;11.642;2023-10-19T14:25:07;5.43;;;3.13;;
26977;SDS011;56314;48.088;11.642;2023-10-19T14:27:34;4.35;;;2.80;;
26977;SDS011;56314;48.088;11.642;2023-10-19T14:30:00;6.47;;;3.33;;
26977;SDS011;56314;48.088;11.642;2023-10-19T14:32:25;7.10;;;3.25;;
26977;SDS011;56314;48.088;11.642;2023-10-19T14:34:52;3.17;;;2.47;;
26977;SDS011;56314;48.088;11.642;2023-10-19T14:37:18;4.00;;;3.10;;
26977;SDS011;56314;48.088;11.642;2023-10-19T14:39:44;9.23;;;3.72;;
26977;SDS011;56314;48.088;11.642;2023-10-19T14:42:10;7.38;;;3.72;;
26977;SDS011;56314;48.088;11.642;2023-10-19T14:44:35;8.65;;;4.40;;
26977;SDS011;56314;48.088;11.642;2023-10-19T14:47:01;8.02;;;4.97;;
26977;SDS011;56314;48.088;11.642;2023-10-19T14:49:27;13.07;;;5.82;;
26977;SDS011;56314;48.088;11.642;2023-10-19T14:51:53;10.48;;;6.00;;
26977;SDS011;56314;48.088;11.642;2023-10-19T14:54:18;14.43;;;7.65;;
26977;SDS011;56314;48.088;11.642;2023-10-19T14:56:43;14.07;;;8.13;;
26977;SDS011;56314;48.088;11.642;2023-10-19T14:59:09;14.88;;;8.18;;
26977;SDS011;56314;48.088;11.642;2023-10-19T15:01:35;13.90;;;8.60;;
26977;SDS011;56314;48.088;11.642;2023-10-19T15:04:01;10.77;;;7.97;;